sensor_id;sensor_type;location;lat;lon;timestamp;P1;durP1;ratioP1;P2;durP2;ratioP2
41739;SDS011;27422;52.444;13.300;2022-09-13T00:00:54;3.55;;;2.50;;
41739;SDS011;27422;52.444;13.300;2022-09-13T00:03:20;4.57;;;2.90;;
41739;SDS011;27422;52.444;13.300;2022-09-13T00:05:45;4.65;;;2.80;;
41739;SDS011;27422;52.444;13.300;2022-09-13T00:08:11;6.65;;;2.60;;
41739;SDS011;27422;52.444;13.300;2022-09-13T00:10:40;4.45;;;2.55;;
41739;SDS011;27422;52.444;13.300;2022-09-13T00:13:08;3.88;;;2.42;;
41739;SDS011;27422;52.444;13.300;2022-09-13T00:15:34;4.72;;;2.72;;
41739;SDS011;27422;52.444;13.300;2022-09-13T00:18:00;4.35;;;2.47;;
41739;SDS011;27422;52.444;13.300;2022-09-13T00:20:26;3.70;;;2.40;;
41739;SDS011;27422;52.444;13.300;2022-09-13T00:22:51;4.88;;;2.35;;
41739;SDS011;27422;52.444;13.300;2022-09-13T00:25:16;4.18;;;2.60;;
41739;SDS011;27422;52.444;13.300;2022-09-13T00:27:42;4.65;;;2.45;;
41739;SDS011;27422;52.444;13.300;2022-09-13T00:30:09;3.78;;;2.63;;
41739;SDS011;27422;52.444;13.300;2022-09-13T00:32:35;3.70;;;2.40;;
41739;SDS011;27422;52.444;13.300;2022-09-13T00:35:02;4.30;;;2.30;;
41739;SDS011;27422;52.444;13.300;2022-09-13T00:37:28;4.40;;;2.85;;
41739;SDS011;27422;52.444;13.300;2022-09-13T00:39:54;5.70;;;2.47;;
41739;SDS011;27422;52.444;13.300;2022-09-13T00:42:24;5.72;;;2.60;;
41739;SDS011;27422;52.444;13.300;2022-09-13T00:47:55;4.20;;;2.15;;
41739;SDS011;27422;52.444;13.300;2022-09-13T00:52:52;3.65;;;2.45;;
41739;SDS011;27422;52.444;13.300;2022-09-13T00:58:24;4.57;;;2.55;;
41739;SDS011;27422;52.444;13.300;2022-09-13T01:00:51;5.43;;;3.00;;
41739;SDS011;27422;52.444;13.300;2022-09-13T01:03:19;4.10;;;2.70;;
41739;SDS011;27422;52.444;13.300;2022-09-13T01:05:47;4.90;;;3.00;;
41739;SDS011;27422;52.444;13.300;2022-09-13T01:08:15;3.85;;;2.70;;
41739;SDS011;27422;52.444;13.300;2022-09-13T01:10:46;4.50;;;2.83;;
41739;SDS011;27422;52.444;13.300;2022-09-13T01:13:22;3.72;;;2.70;;
41739;SDS011;27422;52.444;13.300;2022-09-13T01:15:49;5.22;;;2.90;;
41739;SDS011;27422;52.444;13.300;2022-09-13T01:18:16;4.32;;;3.15;;
41739;SDS011;27422;52.444;13.300;2022-09-13T01:20:55;5.30;;;3.03;;
41739;SDS011;27422;52.444;13.300;2022-09-13T01:23:44;3.97;;;3.00;;
41739;SDS011;27422;52.444;13.300;2022-09-13T01:34:48;5.15;;;3.13;;
41739;SDS011;27422;52.444;13.300;2022-09-13T01:40:22;4.82;;;3.17;;
41739;SDS011;27422;52.444;13.300;2022-09-13T02:00:31;4.35;;;3.22;;
41739;SDS011;27422;52.444;13.300;2022-09-13T02:03:02;4.88;;;3.60;;
41739;SDS011;27422;52.444;13.300;2022-09-13T02:10:37;4.97;;;3.30;;
41739;SDS011;27422;52.444;13.300;2022-09-13T02:13:07;4.43;;;3.00;;
41739;SDS011;27422;52.444;13.300;2022-09-13T02:15:38;4.47;;;3.33;;
41739;SDS011;27422;52.444;13.300;2022-09-13T02:18:11;5.20;;;2.90;;
41739;SDS011;27422;52.444;13.300;2022-09-13T02:20:42;6.03;;;3.20;;
41739;SDS011;27422;52.444;13.300;2022-09-13T02:23:16;4.60;;;3.00;;
41739;SDS011;27422;52.444;13.300;2022-09-13T02:25:47;6.40;;;3.17;;
41739;SDS011;27422;52.444;13.300;2022-09-13T02:28:14;4.95;;;3.67;;
41739;SDS011;27422;52.444;13.300;2022-09-13T02:30:46;5.03;;;3.33;;
41739;SDS011;27422;52.444;13.300;2022-09-13T02:33:30;4.72;;;3.60;;
41739;SDS011;27422;52.444;13.300;2022-09-13T02:36:04;6.20;;;3.38;;
41739;SDS011;27422;52.444;13.300;2022-09-13T02:38:40;5.03;;;3.40;;
41739;SDS011;27422;52.444;13.300;2022-09-13T02:43:45;4.88;;;2.97;;
41739;SDS011;27422;52.444;13.300;2022-09-13T02:46:25;6.35;;;3.38;;
41739;SDS011;27422;52.444;13.300;2022-09-13T02:49:05;5.38;;;3.30;;
41739;SDS011;27422;52.444;13.300;2022-09-13T02:55:13;5.82;;;3.28;;
41739;SDS011;27422;52.444;13.300;2022-09-13T02:57:48;3.95;;;2.92;;
41739;SDS011;27422;52.444;13.300;2022-09-13T03:00:18;4.30;;;3.13;;
41739;SDS011;27422;52.444;13.300;2022-09-13T03:02:43;4.97;;;3.30;;
41739;SDS011;27422;52.444;13.300;2022-09-13T03:05:10;8.38;;;3.50;;
41739;SDS011;27422;52.444;13.300;2022-09-13T03:07:35;9.20;;;3.28;;
41739;SDS011;27422;52.444;13.300;2022-09-13T03:10:05;4.30;;;3.40;;
41739;SDS011;27422;52.444;13.300;2022-09-13T03:23:49;5.35;;;3.63;;
41739;SDS011;27422;52.444;13.300;2022-09-13T03:32:09;4.90;;;3.70;;
41739;SDS011;27422;52.444;13.300;2022-09-13T03:38:00;5.38;;;3.50;;
41739;SDS011;27422;52.444;13.300;2022-09-13T03:45:55;6.20;;;3.55;;
41739;SDS011;27422;52.444;13.300;2022-09-13T03:48:23;5.82;;;3.80;;
41739;SDS011;27422;52.444;13.300;2022-09-13T03:50:49;5.10;;;3.53;;
41739;SDS011;27422;52.444;13.300;2022-09-13T03:53:19;5.43;;;3.97;;
41739;SDS011;27422;52.444;13.300;2022-09-13T03:55:48;5.38;;;3.80;;
41739;SDS011;27422;52.444;13.300;2022-09-13T03:58:14;5.65;;;3.53;;
41739;SDS011;27422;52.444;13.300;2022-09-13T04:00:42;4.95;;;3.72;;
41739;SDS011;27422;52.444;13.300;2022-09-13T04:03:09;5.22;;;3.88;;
41739;SDS011;27422;52.444;13.300;2022-09-13T04:05:37;6.72;;;4.10;;
41739;SDS011;27422;52.444;13.300;2022-09-13T04:08:03;5.82;;;4.00;;
41739;SDS011;27422;52.444;13.300;2022-09-13T04:10:30;5.70;;;4.40;;
41739;SDS011;27422;52.444;13.300;2022-09-13T04:12:56;7.90;;;4.82;;
41739;SDS011;27422;52.444;13.300;2022-09-13T04:15:23;5.72;;;4.07;;
41739;SDS011;27422;52.444;13.300;2022-09-13T04:17:48;5.72;;;3.75;;
41739;SDS011;27422;52.444;13.300;2022-09-13T04:20:14;6.47;;;4.07;;
41739;SDS011;27422;52.444;13.300;2022-09-13T04:22:39;6.13;;;4.05;;
41739;SDS011;27422;52.444;13.300;2022-09-13T04:25:06;5.55;;;4.30;;
41739;SDS011;27422;52.444;13.300;2022-09-13T04:27:31;6.88;;;4.28;;
41739;SDS011;27422;52.444;13.300;2022-09-13T04:29:57;6.45;;;4.18;;
41739;SDS011;27422;52.444;13.300;2022-09-13T04:32:22;7.15;;;4.40;;
41739;SDS011;27422;52.444;13.300;2022-09-13T04:34:48;5.82;;;4.25;;
41739;SDS011;27422;52.444;13.300;2022-09-13T04:37:13;7.40;;;4.07;;
41739;SDS011;27422;52.444;13.300;2022-09-13T04:39:39;6.53;;;4.60;;
41739;SDS011;27422;52.444;13.300;2022-09-13T04:42:04;5.43;;;4.38;;
41739;SDS011;27422;52.444;13.300;2022-09-13T04:44:31;5.07;;;4.22;;
41739;SDS011;27422;52.444;13.300;2022-09-13T04:46:57;6.20;;;4.50;;
41739;SDS011;27422;52.444;13.300;2022-09-13T04:49:22;5.68;;;4.18;;
41739;SDS011;27422;52.444;13.300;2022-09-13T04:51:48;7.70;;;4.82;;
41739;SDS011;27422;52.444;13.300;2022-09-13T04:54:13;7.57;;;5.05;;
41739;SDS011;27422;52.444;13.300;2022-09-13T04:56:39;6.50;;;4.70;;
41739;SDS011;27422;52.444;13.300;2022-09-13T04:59:05;6.47;;;4.22;;
41739;SDS011;27422;52.444;13.300;2022-09-13T05:01:31;6.38;;;4.28;;
41739;SDS011;27422;52.444;13.300;2022-09-13T05:03:56;6.47;;;4.90;;
41739;SDS011;27422;52.444;13.300;2022-09-13T05:06:22;5.43;;;4.32;;
41739;SDS011;27422;52.444;13.300;2022-09-13T05:08:51;6.32;;;4.43;;
41739;SDS011;27422;52.444;13.300;2022-09-13T05:11:19;10.20;;;5.30;;
41739;SDS011;27422;52.444;13.300;2022-09-13T05:13:48;7.15;;;4.20;;
41739;SDS011;27422;52.444;13.300;2022-09-13T05:16:19;6.18;;;4.60;;
41739;SDS011;27422;52.444;13.300;2022-09-13T05:18:45;6.47;;;4.70;;
41739;SDS011;27422;52.444;13.300;2022-09-13T05:21:10;7.15;;;4.93;;
41739;SDS011;27422;52.444;13.300;2022-09-13T05:23:36;6.28;;;4.45;;
41739;SDS011;27422;52.444;13.300;2022-09-13T05:26:03;7.05;;;4.60;;
41739;SDS011;27422;52.444;13.300;2022-09-13T05:28:30;6.47;;;4.78;;
41739;SDS011;27422;52.444;13.300;2022-09-13T05:30:59;6.45;;;4.78;;
41739;SDS011;27422;52.444;13.300;2022-09-13T05:33:26;8.27;;;4.55;;
41739;SDS011;27422;52.444;13.300;2022-09-13T05:35:55;8.15;;;4.50;;
41739;SDS011;27422;52.444;13.300;2022-09-13T05:38:21;5.82;;;4.70;;
41739;SDS011;27422;52.444;13.300;2022-09-13T05:40:47;6.88;;;4.72;;
41739;SDS011;27422;52.444;13.300;2022-09-13T05:43:20;6.55;;;4.45;;
41739;SDS011;27422;52.444;13.300;2022-09-13T05:45:45;6.60;;;4.45;;
41739;SDS011;27422;52.444;13.300;2022-09-13T05:48:12;6.53;;;4.85;;
41739;SDS011;27422;52.444;13.300;2022-09-13T05:50:37;6.95;;;4.55;;
41739;SDS011;27422;52.444;13.300;2022-09-13T05:53:03;8.77;;;5.53;;
41739;SDS011;27422;52.444;13.300;2022-09-13T05:55:28;8.93;;;5.97;;
41739;SDS011;27422;52.444;13.300;2022-09-13T05:57:55;10.45;;;6.28;;
41739;SDS011;27422;52.444;13.300;2022-09-13T06:00:20;10.35;;;6.80;;
41739;SDS011;27422;52.444;13.300;2022-09-13T06:02:48;9.02;;;7.32;;
41739;SDS011;27422;52.444;13.300;2022-09-13T06:05:14;12.52;;;7.25;;
41739;SDS011;27422;52.444;13.300;2022-09-13T06:07:40;11.48;;;7.63;;
41739;SDS011;27422;52.444;13.300;2022-09-13T06:10:06;10.00;;;7.72;;
41739;SDS011;27422;52.444;13.300;2022-09-13T06:12:32;10.70;;;7.43;;
41739;SDS011;27422;52.444;13.300;2022-09-13T06:14:59;12.00;;;9.00;;
41739;SDS011;27422;52.444;13.300;2022-09-13T06:17:27;12.85;;;8.25;;
41739;SDS011;27422;52.444;13.300;2022-09-13T06:19:53;12.20;;;8.40;;
41739;SDS011;27422;52.444;13.300;2022-09-13T06:22:20;14.10;;;8.68;;
41739;SDS011;27422;52.444;13.300;2022-09-13T06:24:47;12.18;;;8.63;;
41739;SDS011;27422;52.444;13.300;2022-09-13T06:27:13;11.50;;;8.55;;
41739;SDS011;27422;52.444;13.300;2022-09-13T06:29:38;15.18;;;9.00;;
41739;SDS011;27422;52.444;13.300;2022-09-13T06:32:03;13.30;;;8.88;;
41739;SDS011;27422;52.444;13.300;2022-09-13T06:34:32;11.60;;;9.18;;
41739;SDS011;27422;52.444;13.300;2022-09-13T06:37:26;11.52;;;8.63;;
41739;SDS011;27422;52.444;13.300;2022-09-13T06:39:52;13.95;;;9.63;;
41739;SDS011;27422;52.444;13.300;2022-09-13T06:51:49;13.13;;;9.82;;
41739;SDS011;27422;52.444;13.300;2022-09-13T07:03:51;12.73;;;8.68;;
41739;SDS011;27422;52.444;13.300;2022-09-13T07:06:28;12.25;;;9.65;;
41739;SDS011;27422;52.444;13.300;2022-09-13T07:08:55;14.35;;;9.20;;
41739;SDS011;27422;52.444;13.300;2022-09-13T07:11:25;13.00;;;10.18;;
41739;SDS011;27422;52.444;13.300;2022-09-13T07:20:58;15.27;;;10.07;;
41739;SDS011;27422;52.444;13.300;2022-09-13T07:26:34;12.82;;;9.45;;
41739;SDS011;27422;52.444;13.300;2022-09-13T07:29:03;13.40;;;9.25;;
41739;SDS011;27422;52.444;13.300;2022-09-13T07:35:18;14.43;;;9.43;;
41739;SDS011;27422;52.444;13.300;2022-09-13T07:37:49;12.55;;;9.20;;
41739;SDS011;27422;52.444;13.300;2022-09-13T07:40:28;12.07;;;8.88;;
41739;SDS011;27422;52.444;13.300;2022-09-13T07:42:59;15.52;;;8.40;;
41739;SDS011;27422;52.444;13.300;2022-09-13T07:54:22;13.55;;;8.52;;
41739;SDS011;27422;52.444;13.300;2022-09-13T07:56:48;15.07;;;9.10;;
41739;SDS011;27422;52.444;13.300;2022-09-13T07:59:27;11.77;;;8.45;;
41739;SDS011;27422;52.444;13.300;2022-09-13T08:02:28;10.95;;;8.80;;
41739;SDS011;27422;52.444;13.300;2022-09-13T08:07:44;11.02;;;8.38;;
41739;SDS011;27422;52.444;13.300;2022-09-13T08:10:13;12.32;;;8.45;;
41739;SDS011;27422;52.444;13.300;2022-09-13T08:12:38;11.25;;;8.13;;
41739;SDS011;27422;52.444;13.300;2022-09-13T08:15:24;11.25;;;8.05;;
41739;SDS011;27422;52.444;13.300;2022-09-13T08:20:56;13.73;;;8.05;;
41739;SDS011;27422;52.444;13.300;2022-09-13T08:23:23;11.40;;;7.63;;
41739;SDS011;27422;52.444;13.300;2022-09-13T08:26:02;9.30;;;7.28;;
41739;SDS011;27422;52.444;13.300;2022-09-13T08:28:27;15.40;;;9.10;;
41739;SDS011;27422;52.444;13.300;2022-09-13T08:33:44;11.52;;;7.35;;
41739;SDS011;27422;52.444;13.300;2022-09-13T08:36:11;12.30;;;7.70;;
41739;SDS011;27422;52.444;13.300;2022-09-13T08:45:13;8.68;;;6.82;;
41739;SDS011;27422;52.444;13.300;2022-09-13T08:47:49;12.13;;;7.07;;
41739;SDS011;27422;52.444;13.300;2022-09-13T08:50:35;9.50;;;6.82;;
41739;SDS011;27422;52.444;13.300;2022-09-13T08:53:31;9.77;;;6.53;;
41739;SDS011;27422;52.444;13.300;2022-09-13T08:56:17;10.35;;;6.20;;
41739;SDS011;27422;52.444;13.300;2022-09-13T08:58:58;7.65;;;5.60;;
41739;SDS011;27422;52.444;13.300;2022-09-13T09:22:00;7.05;;;4.47;;
41739;SDS011;27422;52.444;13.300;2022-09-13T09:33:59;6.38;;;4.47;;
41739;SDS011;27422;52.444;13.300;2022-09-13T09:42:21;6.57;;;4.57;;
41739;SDS011;27422;52.444;13.300;2022-09-13T09:45:03;7.90;;;4.80;;
41739;SDS011;27422;52.444;13.300;2022-09-13T09:47:39;8.10;;;5.10;;
41739;SDS011;27422;52.444;13.300;2022-09-13T09:52:45;6.72;;;4.32;;
41739;SDS011;27422;52.444;13.300;2022-09-13T09:58:03;7.70;;;3.95;;
41739;SDS011;27422;52.444;13.300;2022-09-13T10:00:34;6.32;;;4.18;;
41739;SDS011;27422;52.444;13.300;2022-09-13T10:03:24;6.22;;;4.18;;
41739;SDS011;27422;52.444;13.300;2022-09-13T10:06:03;5.78;;;4.10;;
41739;SDS011;27422;52.444;13.300;2022-09-13T10:08:30;6.47;;;4.43;;
41739;SDS011;27422;52.444;13.300;2022-09-13T10:10:58;5.55;;;3.85;;
41739;SDS011;27422;52.444;13.300;2022-09-13T10:13:24;6.07;;;4.03;;
41739;SDS011;27422;52.444;13.300;2022-09-13T10:16:00;6.32;;;4.30;;
41739;SDS011;27422;52.444;13.300;2022-09-13T10:18:50;5.57;;;3.85;;
41739;SDS011;27422;52.444;13.300;2022-09-13T10:23:41;5.90;;;3.50;;
41739;SDS011;27422;52.444;13.300;2022-09-13T10:26:11;7.15;;;4.18;;
41739;SDS011;27422;52.444;13.300;2022-09-13T10:31:48;56.08;;;8.95;;
41739;SDS011;27422;52.444;13.300;2022-09-13T10:34:19;48.25;;;8.75;;
41739;SDS011;27422;52.444;13.300;2022-09-13T10:36:57;7.65;;;4.38;;
41739;SDS011;27422;52.444;13.300;2022-09-13T10:39:26;6.38;;;4.47;;
41739;SDS011;27422;52.444;13.300;2022-09-13T10:41:57;8.20;;;4.72;;
41739;SDS011;27422;52.444;13.300;2022-09-13T10:44:31;7.43;;;4.50;;
41739;SDS011;27422;52.444;13.300;2022-09-13T10:47:05;6.32;;;4.35;;
41739;SDS011;27422;52.444;13.300;2022-09-13T10:49:40;6.47;;;4.20;;
41739;SDS011;27422;52.444;13.300;2022-09-13T11:00:48;6.25;;;4.40;;
41739;SDS011;27422;52.444;13.300;2022-09-13T11:06:10;7.43;;;5.05;;
41739;SDS011;27422;52.444;13.300;2022-09-13T11:17:11;12.60;;;6.45;;
41739;SDS011;27422;52.444;13.300;2022-09-13T11:34:52;11.60;;;8.38;;
41739;SDS011;27422;52.444;13.300;2022-09-13T11:47:55;15.82;;;9.60;;
41739;SDS011;27422;52.444;13.300;2022-09-13T11:50:39;16.17;;;10.15;;
41739;SDS011;27422;52.444;13.300;2022-09-13T11:56:00;12.02;;;9.55;;
41739;SDS011;27422;52.444;13.300;2022-09-13T11:58:49;14.25;;;10.18;;
41739;SDS011;27422;52.444;13.300;2022-09-13T12:01:18;15.30;;;10.10;;
41739;SDS011;27422;52.444;13.300;2022-09-13T12:06:22;12.75;;;8.88;;
41739;SDS011;27422;52.444;13.300;2022-09-13T12:08:53;11.95;;;8.63;;
41739;SDS011;27422;52.444;13.300;2022-09-13T12:11:22;11.80;;;8.60;;
41739;SDS011;27422;52.444;13.300;2022-09-13T12:13:54;12.85;;;8.38;;
41739;SDS011;27422;52.444;13.300;2022-09-13T12:22:27;12.23;;;8.75;;
41739;SDS011;27422;52.444;13.300;2022-09-13T12:25:02;12.52;;;7.82;;
41739;SDS011;27422;52.444;13.300;2022-09-13T12:34:41;15.73;;;8.80;;
41739;SDS011;27422;52.444;13.300;2022-09-13T13:27:19;10.55;;;7.25;;
41739;SDS011;27422;52.444;13.300;2022-09-13T13:33:10;13.73;;;8.23;;
41739;SDS011;27422;52.444;13.300;2022-09-13T13:35:43;11.63;;;8.10;;
41739;SDS011;27422;52.444;13.300;2022-09-13T13:38:36;11.70;;;8.63;;
41739;SDS011;27422;52.444;13.300;2022-09-13T13:45:16;11.75;;;8.13;;
41739;SDS011;27422;52.444;13.300;2022-09-13T13:53:59;12.48;;;8.70;;
41739;SDS011;27422;52.444;13.300;2022-09-13T14:01:57;12.13;;;8.20;;
41739;SDS011;27422;52.444;13.300;2022-09-13T14:07:04;13.30;;;8.35;;
41739;SDS011;27422;52.444;13.300;2022-09-13T14:09:37;12.13;;;7.97;;
41739;SDS011;27422;52.444;13.300;2022-09-13T14:15:11;12.82;;;9.50;;
41739;SDS011;27422;52.444;13.300;2022-09-13T14:17:54;12.10;;;8.40;;
41739;SDS011;27422;52.444;13.300;2022-09-13T14:20:30;11.27;;;8.13;;
41739;SDS011;27422;52.444;13.300;2022-09-13T14:23:12;10.82;;;7.40;;
41739;SDS011;27422;52.444;13.300;2022-09-13T14:25:42;11.75;;;7.68;;
41739;SDS011;27422;52.444;13.300;2022-09-13T14:28:07;10.90;;;7.63;;
41739;SDS011;27422;52.444;13.300;2022-09-13T14:30:34;12.95;;;8.52;;
41739;SDS011;27422;52.444;13.300;2022-09-13T14:33:01;11.88;;;7.47;;
41739;SDS011;27422;52.444;13.300;2022-09-13T14:35:33;10.65;;;8.18;;
41739;SDS011;27422;52.444;13.300;2022-09-13T14:40:53;12.90;;;8.10;;
41739;SDS011;27422;52.444;13.300;2022-09-13T14:43:25;12.15;;;7.18;;
41739;SDS011;27422;52.444;13.300;2022-09-13T14:46:15;10.38;;;8.30;;
41739;SDS011;27422;52.444;13.300;2022-09-13T14:48:50;12.13;;;8.27;;
41739;SDS011;27422;52.444;13.300;2022-09-13T14:51:47;11.02;;;7.75;;
41739;SDS011;27422;52.444;13.300;2022-09-13T14:54:16;10.55;;;7.68;;
41739;SDS011;27422;52.444;13.300;2022-09-13T14:56:50;11.60;;;7.45;;
41739;SDS011;27422;52.444;13.300;2022-09-13T14:59:21;11.85;;;7.68;;
41739;SDS011;27422;52.444;13.300;2022-09-13T15:04:42;10.50;;;6.90;;
41739;SDS011;27422;52.444;13.300;2022-09-13T15:12:33;10.68;;;6.50;;
41739;SDS011;27422;52.444;13.300;2022-09-13T15:17:53;10.82;;;5.95;;
41739;SDS011;27422;52.444;13.300;2022-09-13T15:20:19;8.27;;;5.88;;
41739;SDS011;27422;52.444;13.300;2022-09-13T15:22:48;8.07;;;5.55;;
41739;SDS011;27422;52.444;13.300;2022-09-13T15:25:17;7.38;;;5.43;;
41739;SDS011;27422;52.444;13.300;2022-09-13T15:27:46;9.35;;;5.43;;
41739;SDS011;27422;52.444;13.300;2022-09-13T15:30:22;7.38;;;4.95;;
41739;SDS011;27422;52.444;13.300;2022-09-13T15:35:37;8.05;;;4.45;;
41739;SDS011;27422;52.444;13.300;2022-09-13T15:38:54;6.60;;;4.47;;
41739;SDS011;27422;52.444;13.300;2022-09-13T15:41:17;7.03;;;4.38;;
41739;SDS011;27422;52.444;13.300;2022-09-13T15:43:43;6.35;;;3.88;;
41739;SDS011;27422;52.444;13.300;2022-09-13T15:46:15;7.25;;;4.50;;
41739;SDS011;27422;52.444;13.300;2022-09-13T15:48:43;6.78;;;3.95;;
41739;SDS011;27422;52.444;13.300;2022-09-13T15:51:17;6.53;;;3.70;;
41739;SDS011;27422;52.444;13.300;2022-09-13T15:53:43;6.65;;;3.72;;
41739;SDS011;27422;52.444;13.300;2022-09-13T15:56:13;8.95;;;4.05;;
41739;SDS011;27422;52.444;13.300;2022-09-13T15:58:43;5.57;;;3.58;;
41739;SDS011;27422;52.444;13.300;2022-09-13T16:01:11;7.93;;;3.85;;
41739;SDS011;27422;52.444;13.300;2022-09-13T16:03:37;6.15;;;4.13;;
41739;SDS011;27422;52.444;13.300;2022-09-13T16:06:03;7.20;;;3.97;;
41739;SDS011;27422;52.444;13.300;2022-09-13T16:08:29;5.90;;;3.60;;
41739;SDS011;27422;52.444;13.300;2022-09-13T16:10:54;5.45;;;3.58;;
41739;SDS011;27422;52.444;13.300;2022-09-13T16:13:19;7.00;;;3.95;;
41739;SDS011;27422;52.444;13.300;2022-09-13T16:15:47;5.07;;;3.40;;
41739;SDS011;27422;52.444;13.300;2022-09-13T16:18:13;6.13;;;3.67;;
41739;SDS011;27422;52.444;13.300;2022-09-13T16:20:40;7.45;;;4.00;;
41739;SDS011;27422;52.444;13.300;2022-09-13T16:23:06;6.38;;;3.42;;
41739;SDS011;27422;52.444;13.300;2022-09-13T16:25:31;6.00;;;3.33;;
41739;SDS011;27422;52.444;13.300;2022-09-13T16:27:58;4.72;;;3.53;;
41739;SDS011;27422;52.444;13.300;2022-09-13T16:30:24;4.97;;;3.50;;
41739;SDS011;27422;52.444;13.300;2022-09-13T16:32:51;5.70;;;3.58;;
41739;SDS011;27422;52.444;13.300;2022-09-13T16:35:27;5.70;;;3.53;;
41739;SDS011;27422;52.444;13.300;2022-09-13T16:37:53;6.97;;;3.20;;
41739;SDS011;27422;52.444;13.300;2022-09-13T16:40:18;6.18;;;3.35;;
41739;SDS011;27422;52.444;13.300;2022-09-13T16:42:44;5.43;;;3.30;;
41739;SDS011;27422;52.444;13.300;2022-09-13T16:45:10;5.70;;;3.60;;
41739;SDS011;27422;52.444;13.300;2022-09-13T16:47:36;5.25;;;3.65;;
41739;SDS011;27422;52.444;13.300;2022-09-13T16:50:02;5.53;;;3.20;;
41739;SDS011;27422;52.444;13.300;2022-09-13T16:52:31;4.38;;;3.22;;
41739;SDS011;27422;52.444;13.300;2022-09-13T16:54:57;5.97;;;3.42;;
41739;SDS011;27422;52.444;13.300;2022-09-13T16:57:23;5.50;;;3.55;;
41739;SDS011;27422;52.444;13.300;2022-09-13T16:59:48;6.03;;;3.40;;
41739;SDS011;27422;52.444;13.300;2022-09-13T17:02:15;5.93;;;3.33;;
41739;SDS011;27422;52.444;13.300;2022-09-13T17:04:40;5.10;;;3.22;;
41739;SDS011;27422;52.444;13.300;2022-09-13T17:07:05;5.53;;;3.20;;
41739;SDS011;27422;52.444;13.300;2022-09-13T17:09:34;6.65;;;3.50;;
41739;SDS011;27422;52.444;13.300;2022-09-13T17:12:00;5.90;;;3.30;;
41739;SDS011;27422;52.444;13.300;2022-09-13T17:14:25;5.80;;;3.15;;
41739;SDS011;27422;52.444;13.300;2022-09-13T17:16:52;5.32;;;3.20;;
41739;SDS011;27422;52.444;13.300;2022-09-13T17:19:20;6.25;;;3.15;;
41739;SDS011;27422;52.444;13.300;2022-09-13T17:21:50;5.60;;;3.10;;
41739;SDS011;27422;52.444;13.300;2022-09-13T17:24:17;7.15;;;3.58;;
41739;SDS011;27422;52.444;13.300;2022-09-13T17:26:42;7.10;;;4.38;;
41739;SDS011;27422;52.444;13.300;2022-09-13T17:29:11;22.20;;;10.05;;
41739;SDS011;27422;52.444;13.300;2022-09-13T17:31:37;11.82;;;6.50;;
41739;SDS011;27422;52.444;13.300;2022-09-13T17:34:02;7.65;;;4.68;;
41739;SDS011;27422;52.444;13.300;2022-09-13T17:36:29;6.70;;;3.47;;
41739;SDS011;27422;52.444;13.300;2022-09-13T17:38:55;7.22;;;3.70;;
41739;SDS011;27422;52.444;13.300;2022-09-13T17:41:21;6.93;;;3.78;;
41739;SDS011;27422;52.444;13.300;2022-09-13T17:43:47;8.35;;;4.32;;
41739;SDS011;27422;52.444;13.300;2022-09-13T17:46:14;6.45;;;3.30;;
41739;SDS011;27422;52.444;13.300;2022-09-13T17:48:41;4.53;;;3.10;;
41739;SDS011;27422;52.444;13.300;2022-09-13T17:51:08;5.50;;;2.80;;
41739;SDS011;27422;52.444;13.300;2022-09-13T17:53:36;7.15;;;3.30;;
41739;SDS011;27422;52.444;13.300;2022-09-13T17:56:09;4.72;;;2.55;;
41739;SDS011;27422;52.444;13.300;2022-09-13T17:58:34;5.35;;;3.00;;
41739;SDS011;27422;52.444;13.300;2022-09-13T18:01:01;6.72;;;3.47;;
41739;SDS011;27422;52.444;13.300;2022-09-13T18:03:31;5.35;;;3.10;;
41739;SDS011;27422;52.444;13.300;2022-09-13T18:05:56;6.88;;;3.20;;
41739;SDS011;27422;52.444;13.300;2022-09-13T18:08:23;5.85;;;2.60;;
41739;SDS011;27422;52.444;13.300;2022-09-13T18:10:49;4.35;;;2.85;;
41739;SDS011;27422;52.444;13.300;2022-09-13T18:13:15;6.38;;;2.83;;
41739;SDS011;27422;52.444;13.300;2022-09-13T18:15:40;5.38;;;2.90;;
41739;SDS011;27422;52.444;13.300;2022-09-13T18:18:05;5.70;;;3.08;;
41739;SDS011;27422;52.444;13.300;2022-09-13T18:20:31;6.28;;;3.20;;
41739;SDS011;27422;52.444;13.300;2022-09-13T18:22:56;5.22;;;2.88;;
41739;SDS011;27422;52.444;13.300;2022-09-13T18:25:22;5.20;;;2.85;;
41739;SDS011;27422;52.444;13.300;2022-09-13T18:27:48;5.60;;;3.00;;
41739;SDS011;27422;52.444;13.300;2022-09-13T18:30:34;6.05;;;3.13;;
41739;SDS011;27422;52.444;13.300;2022-09-13T18:32:59;5.68;;;3.03;;
41739;SDS011;27422;52.444;13.300;2022-09-13T18:38:43;5.35;;;3.28;;
41739;SDS011;27422;52.444;13.300;2022-09-13T18:41:17;4.65;;;3.08;;
41739;SDS011;27422;52.444;13.300;2022-09-13T18:43:45;12.23;;;3.50;;
41739;SDS011;27422;52.444;13.300;2022-09-13T18:46:12;6.82;;;3.50;;
41739;SDS011;27422;52.444;13.300;2022-09-13T18:48:40;6.22;;;3.53;;
41739;SDS011;27422;52.444;13.300;2022-09-13T18:51:09;6.18;;;3.20;;
41739;SDS011;27422;52.444;13.300;2022-09-13T18:53:36;4.93;;;3.05;;
41739;SDS011;27422;52.444;13.300;2022-09-13T18:56:11;6.45;;;3.30;;
41739;SDS011;27422;52.444;13.300;2022-09-13T18:59:06;6.65;;;3.30;;
41739;SDS011;27422;52.444;13.300;2022-09-13T19:01:37;6.38;;;3.80;;
41739;SDS011;27422;52.444;13.300;2022-09-13T19:04:05;6.47;;;3.53;;
41739;SDS011;27422;52.444;13.300;2022-09-13T19:06:36;6.32;;;3.65;;
41739;SDS011;27422;52.444;13.300;2022-09-13T19:09:10;6.05;;;3.38;;
41739;SDS011;27422;52.444;13.300;2022-09-13T19:11:37;5.32;;;3.65;;
41739;SDS011;27422;52.444;13.300;2022-09-13T19:16:34;4.93;;;3.30;;
41739;SDS011;27422;52.444;13.300;2022-09-13T19:19:20;6.07;;;3.45;;
41739;SDS011;27422;52.444;13.300;2022-09-13T19:21:47;6.57;;;3.75;;
41739;SDS011;27422;52.444;13.300;2022-09-13T19:24:12;5.70;;;3.47;;
41739;SDS011;27422;52.444;13.300;2022-09-13T19:26:40;5.20;;;3.53;;
41739;SDS011;27422;52.444;13.300;2022-09-13T19:29:10;5.63;;;3.67;;
41739;SDS011;27422;52.444;13.300;2022-09-13T19:31:38;7.20;;;3.53;;
41739;SDS011;27422;52.444;13.300;2022-09-13T19:34:04;6.10;;;3.60;;
41739;SDS011;27422;52.444;13.300;2022-09-13T19:36:31;7.35;;;3.97;;
41739;SDS011;27422;52.444;13.300;2022-09-13T19:38:58;7.30;;;3.65;;
41739;SDS011;27422;52.444;13.300;2022-09-13T19:41:33;6.45;;;3.67;;
41739;SDS011;27422;52.444;13.300;2022-09-13T19:43:59;6.50;;;3.97;;
41739;SDS011;27422;52.444;13.300;2022-09-13T19:46:29;8.52;;;4.15;;
41739;SDS011;27422;52.444;13.300;2022-09-13T19:48:56;7.45;;;4.00;;
41739;SDS011;27422;52.444;13.300;2022-09-13T19:51:27;9.45;;;4.22;;
41739;SDS011;27422;52.444;13.300;2022-09-13T19:53:54;8.13;;;4.70;;
41739;SDS011;27422;52.444;13.300;2022-09-13T19:56:22;6.65;;;4.70;;
41739;SDS011;27422;52.444;13.300;2022-09-13T19:58:49;6.18;;;3.75;;
41739;SDS011;27422;52.444;13.300;2022-09-13T20:01:18;9.30;;;4.70;;
41739;SDS011;27422;52.444;13.300;2022-09-13T20:03:57;7.43;;;4.90;;
41739;SDS011;27422;52.444;13.300;2022-09-13T20:06:25;8.75;;;5.90;;
41739;SDS011;27422;52.444;13.300;2022-09-13T20:08:57;8.48;;;5.60;;
41739;SDS011;27422;52.444;13.300;2022-09-13T20:11:23;8.13;;;4.90;;
41739;SDS011;27422;52.444;13.300;2022-09-13T20:13:53;7.07;;;4.95;;
41739;SDS011;27422;52.444;13.300;2022-09-13T20:16:21;10.27;;;5.20;;
41739;SDS011;27422;52.444;13.300;2022-09-13T20:18:49;9.20;;;5.22;;
41739;SDS011;27422;52.444;13.300;2022-09-13T20:21:15;6.80;;;4.95;;
41739;SDS011;27422;52.444;13.300;2022-09-13T20:23:42;7.72;;;5.25;;
41739;SDS011;27422;52.444;13.300;2022-09-13T20:26:12;7.63;;;5.13;;